Time;durP1;ratioP1;P1;durP2;ratioP2;P2;SDS_P1;SDS_P2;PMS_P1;PMS_P2;Temp;Humidity;BMP_temperature;BMP_pressure;BME280_temperature;BME280_humidity;BME280_pressure;Samples;Min_cycle;Max_cycle;Signal;HPM_P1;HPM_P2
2023/10/28 00:01:14;;;;;;;7.03;6.00;;;12.70;99.90;;;;;;5012634;28;21101;-71
2023/10/28 00:03:41;;;;;;;6.07;5.50;;;12.70;99.90;;;;;;5010594;28;20950;-71
2023/10/28 00:06:09;;;;;;;6.63;6.00;;;12.70;99.90;;;;;;5013514;28;20425;-71
2023/10/28 00:08:36;;;;;;;7.33;5.73;;;12.90;99.90;;;;;;5014839;28;20840;-72
2023/10/28 00:11:04;;;;;;;5.50;5.10;;;12.70;99.90;;;;;;5012370;28;20482;-71
2023/10/28 00:13:30;;;;;;;6.53;5.83;;;12.70;99.90;;;;;;5013458;28;20925;-69
2023/10/28 00:15:56;;;;;;;6.20;5.70;;;12.70;99.90;;;;;;5013559;28;20515;-64
2023/10/28 00:18:22;;;;;;;5.77;5.37;;;12.70;99.90;;;;;;5014365;28;20396;-72
2023/10/28 00:20:48;;;;;;;6.20;5.70;;;12.80;99.90;;;;;;5014109;28;20838;-72
2023/10/28 00:23:14;;;;;;;6.80;6.20;;;12.80;99.90;;;;;;5013604;28;20203;-73
2023/10/28 00:25:43;;;;;;;6.67;6.07;;;12.80;99.90;;;;;;5013520;28;20483;-73
2023/10/28 00:28:09;;;;;;;6.07;5.60;;;12.90;99.90;;;;;;5013605;28;20182;-72
2023/10/28 00:30:39;;;;;;;7.00;6.40;;;12.90;99.90;;;;;;5013895;28;20432;-73
2023/10/28 00:33:05;;;;;;;6.77;6.27;;;13.00;99.90;;;;;;5011944;28;20423;-72
2023/10/28 00:35:31;;;;;;;6.23;5.83;;;12.90;99.90;;;;;;5014323;28;20775;-72
2023/10/28 00:37:57;;;;;;;7.20;6.70;;;12.90;99.90;;;;;;5013955;28;20412;-64
2023/10/28 00:40:29;;;;;;;7.33;6.73;;;13.00;99.90;;;;;;5011360;28;20178;-73
2023/10/28 00:42:56;;;;;;;7.77;7.27;;;13.00;99.90;;;;;;5012888;28;20471;-73
2023/10/28 00:45:21;;;;;;;8.70;7.90;;;13.00;99.90;;;;;;5012881;28;20444;-72
2023/10/28 00:47:53;;;;;;;8.57;7.63;;;13.00;99.90;;;;;;5014046;28;20933;-72
2023/10/28 00:50:23;;;;;;;8.43;7.57;;;13.00;99.90;;;;;;5012499;28;20816;-72
2023/10/28 00:52:54;;;;;;;8.50;7.63;;;13.10;99.90;;;;;;5013267;28;20516;-72
2023/10/28 00:55:22;;;;;;;8.70;8.00;;;13.00;99.90;;;;;;5012779;28;20416;-72
2023/10/28 00:57:48;;;;;;;8.27;7.60;;;13.10;99.90;;;;;;5013662;28;20420;-72
2023/10/28 01:00:17;;;;;;;8.83;7.80;;;13.00;99.90;;;;;;5012353;28;20429;-73
2023/10/28 01:02:44;;;;;;;7.60;6.90;;;13.00;99.90;;;;;;5013485;28;20831;-73
2023/10/28 01:05:12;;;;;;;8.53;7.73;;;13.00;99.90;;;;;;5012336;28;20533;-73
2023/10/28 01:07:44;;;;;;;9.07;8.20;;;13.10;99.90;;;;;;5010572;28;20408;-73
2023/10/28 01:10:10;;;;;;;9.40;8.10;;;13.10;99.90;;;;;;5001180;28;20516;-73
2023/10/28 01:12:37;;;;;;;8.00;7.50;;;13.00;99.90;;;;;;5012589;28;20526;-72
2023/10/28 01:15:05;;;;;;;9.03;8.13;;;13.10;99.90;;;;;;5012479;28;20196;-71
2023/10/28 01:17:31;;;;;;;11.27;7.20;;;13.10;99.90;;;;;;5013075;28;20462;-73
2023/10/28 01:19:57;;;;;;;8.90;7.70;;;13.10;99.90;;;;;;5011609;28;20446;-73
2023/10/28 01:22:24;;;;;;;9.13;7.67;;;13.10;99.90;;;;;;5012012;28;20556;-70
2023/10/28 01:24:51;;;;;;;8.80;8.10;;;13.10;99.90;;;;;;5003221;28;20809;-72
2023/10/28 01:27:19;;;;;;;12.40;8.90;;;13.10;99.90;;;;;;5010437;28;20491;-73
2023/10/28 01:29:46;;;;;;;9.90;8.30;;;13.10;99.90;;;;;;5012782;28;20426;-73
2023/10/28 01:32:12;;;;;;;11.37;10.20;;;13.10;99.90;;;;;;5010717;28;20437;-73
2023/10/28 01:34:51;;;;;;;9.83;8.90;;;13.10;99.90;;;;;;5012022;28;20956;-72
2023/10/28 01:37:17;;;;;;;9.17;8.23;;;13.20;99.90;;;;;;5010687;28;20468;-72
2023/10/28 01:39:52;;;;;;;8.80;8.00;;;13.10;99.90;;;;;;5012526;28;20468;-73
2023/10/28 01:42:19;;;;;;;7.20;6.60;;;13.20;99.90;;;;;;5011773;28;20451;-72
2023/10/28 01:44:45;;;;;;;5.53;5.20;;;13.20;99.90;;;;;;5012510;28;20441;-72
2023/10/28 01:47:12;;;;;;;5.93;5.50;;;13.20;99.90;;;;;;5011901;28;20456;-72
2023/10/28 01:49:38;;;;;;;6.20;5.80;;;13.20;99.90;;;;;;5012764;28;20785;-72
2023/10/28 01:52:05;;;;;;;5.60;5.30;;;13.30;99.90;;;;;;5012142;28;20944;-63
2023/10/28 01:54:33;;;;;;;5.70;5.40;;;13.30;99.90;;;;;;5012342;28;20558;-72
2023/10/28 01:57:04;;;;;;;7.30;5.30;;;13.20;99.90;;;;;;5012272;28;20441;-72
2023/10/28 01:59:30;;;;;;;5.50;5.20;;;13.30;99.90;;;;;;5012501;28;20425;-72
2023/10/28 02:01:56;;;;;;;5.73;5.43;;;13.40;99.90;;;;;;5012346;28;20539;-72
2023/10/28 02:04:22;;;;;;;4.87;4.67;;;13.40;99.90;;;;;;5011248;28;20787;-72
2023/10/28 02:06:50;;;;;;;5.10;4.80;;;13.50;99.90;;;;;;5011125;28;20433;-72
2023/10/28 02:09:17;;;;;;;4.93;4.73;;;13.50;99.90;;;;;;5004583;28;20211;-72
2023/10/28 02:11:43;;;;;;;5.57;5.23;;;13.50;99.90;;;;;;4993101;28;20426;-72
2023/10/28 02:14:09;;;;;;;5.20;5.00;;;13.50;99.90;;;;;;4992187;28;20442;-72
2023/10/28 02:16:38;;;;;;;4.73;4.43;;;13.60;99.90;;;;;;4992910;28;20442;-72
2023/10/28 02:19:05;;;;;;;4.57;4.27;;;13.60;99.90;;;;;;4992540;28;20172;-63
2023/10/28 02:21:31;;;;;;;4.80;4.50;;;13.60;99.90;;;;;;4992375;28;20480;-72
2023/10/28 02:23:57;;;;;;;4.13;3.93;;;13.60;99.90;;;;;;4992783;28;20462;-66
2023/10/28 02:26:23;;;;;;;5.50;5.20;;;13.60;99.90;;;;;;4992051;28;20506;-66
2023/10/28 02:28:49;;;;;;;5.20;4.90;;;13.70;99.90;;;;;;4992822;28;20979;-66
2023/10/28 02:31:15;;;;;;;5.53;5.20;;;13.70;99.90;;;;;;4991738;28;20492;-65
2023/10/28 02:33:41;;;;;;;5.00;4.70;;;13.80;99.90;;;;;;5000092;28;20182;-66
2023/10/28 02:36:08;;;;;;;5.03;4.73;;;13.80;99.90;;;;;;5009011;28;20276;-61
2023/10/28 02:38:35;;;;;;;5.50;5.10;;;13.80;99.90;;;;;;5011914;28;20555;-66
2023/10/28 02:41:01;;;;;;;5.47;5.10;;;13.80;99.90;;;;;;5015143;28;20437;-66
2023/10/28 02:43:26;;;;;;;6.07;5.50;;;13.90;99.90;;;;;;5015204;28;21012;-66
2023/10/28 02:45:52;;;;;;;5.00;4.70;;;13.90;99.90;;;;;;5015122;28;20508;-66
2023/10/28 02:48:18;;;;;;;5.67;5.30;;;13.90;99.90;;;;;;5014935;28;20253;-65
2023/10/28 02:50:44;;;;;;;5.50;5.17;;;13.90;99.90;;;;;;5015096;28;20253;-66
2023/10/28 02:53:09;;;;;;;5.50;5.20;;;13.90;99.90;;;;;;5012671;28;20175;-65
2023/10/28 02:55:36;;;;;;;5.67;5.40;;;13.90;99.90;;;;;;5012530;28;20175;-65
2023/10/28 02:58:02;;;;;;;5.83;5.63;;;13.90;99.90;;;;;;5013792;28;20700;-66
2023/10/28 03:00:28;;;;;;;5.43;5.20;;;13.90;99.90;;;;;;5013386;28;20495;-65
2023/10/28 03:02:55;;;;;;;5.90;5.60;;;13.90;99.90;;;;;;5014609;28;20548;-66
2023/10/28 03:05:24;;;;;;;5.77;5.57;;;14.00;99.90;;;;;;5012166;28;20191;-65
2023/10/28 03:07:53;;;;;;;5.67;5.40;;;14.00;99.90;;;;;;4995026;28;20459;-66
2023/10/28 03:10:19;;;;;;;6.07;5.67;;;14.00;99.90;;;;;;5010722;28;20418;-66
2023/10/28 03:12:44;;;;;;;5.80;5.57;;;14.00;99.90;;;;;;5014586;28;20406;-66
2023/10/28 03:15:10;;;;;;;7.13;5.60;;;14.00;99.90;;;;;;5013662;28;20543;-65
2023/10/28 03:17:39;;;;;;;5.63;5.23;;;14.00;99.90;;;;;;5014473;28;20417;-66
2023/10/28 03:20:11;;;;;;;6.07;5.67;;;14.00;99.90;;;;;;5014455;28;20428;-66
2023/10/28 03:22:38;;;;;;;6.13;5.73;;;14.00;99.90;;;;;;5014319;28;20477;-66
2023/10/28 03:25:04;;;;;;;5.90;5.60;;;14.00;99.90;;;;;;5013656;28;20522;-66
2023/10/28 03:27:30;;;;;;;5.27;5.07;;;14.00;99.90;;;;;;5013513;28;20395;-66
2023/10/28 03:29:56;;;;;;;5.80;5.50;;;14.10;99.90;;;;;;5013029;28;20762;-66
2023/10/28 03:32:22;;;;;;;5.13;4.83;;;14.10;99.90;;;;;;5013396;28;20893;-66
2023/10/28 03:34:49;;;;;;;5.03;4.83;;;14.10;99.90;;;;;;5014221;28;20496;-66
2023/10/28 03:37:14;;;;;;;5.10;4.83;;;14.10;99.90;;;;;;5009660;28;20458;-66
2023/10/28 03:39:40;;;;;;;4.90;4.70;;;14.10;99.90;;;;;;5013662;28;20458;-66
2023/10/28 03:42:11;;;;;;;4.90;4.60;;;14.10;99.90;;;;;;5013811;28;20208;-65
2023/10/28 03:44:37;;;;;;;4.43;4.30;;;14.10;99.90;;;;;;5013987;28;20646;-66
2023/10/28 03:47:04;;;;;;;4.90;4.60;;;14.10;99.90;;;;;;5012711;28;20422;-66
2023/10/28 03:49:30;;;;;;;4.37;4.27;;;14.10;99.90;;;;;;5013060;28;20472;-66
2023/10/28 03:51:56;;;;;;;4.70;4.50;;;14.10;99.90;;;;;;4972180;28;1153418;-66
2023/10/28 03:54:22;;;;;;;4.53;4.33;;;14.10;99.90;;;;;;4994662;28;20179;-66
2023/10/28 03:56:48;;;;;;;4.43;4.23;;;14.10;99.90;;;;;;4997991;28;20413;-66
2023/10/28 03:59:14;;;;;;;4.37;4.20;;;14.10;99.90;;;;;;5014139;28;20170;-66
2023/10/28 04:01:44;;;;;;;4.53;4.43;;;14.10;99.90;;;;;;5015039;28;20184;-66
2023/10/28 04:04:10;;;;;;;4.47;4.37;;;14.10;99.90;;;;;;5014621;28;20418;-61
2023/10/28 04:06:36;;;;;;;4.10;4.00;;;14.00;99.90;;;;;;5012805;28;20906;-66
2023/10/28 04:09:03;;;;;;;4.40;4.10;;;14.00;99.90;;;;;;5014836;28;20504;-66
2023/10/28 04:11:29;;;;;;;4.40;4.10;;;14.00;99.90;;;;;;5012210;28;20190;-66
2023/10/28 04:13:55;;;;;;;4.80;4.60;;;14.00;99.90;;;;;;5013422;28;20419;-66
2023/10/28 04:16:21;;;;;;;4.20;4.10;;;14.00;99.90;;;;;;5013883;28;20178;-66
2023/10/28 04:18:48;;;;;;;4.50;4.30;;;14.00;99.90;;;;;;5014537;28;20175;-65
2023/10/28 04:21:14;;;;;;;4.17;3.90;;;14.00;99.90;;;;;;5012520;28;20418;-64
2023/10/28 04:23:40;;;;;;;4.20;4.10;;;14.00;99.90;;;;;;5014431;28;20468;-66
2023/10/28 04:26:05;;;;;;;4.43;4.23;;;14.00;99.90;;;;;;5014027;28;20677;-66
2023/10/28 04:28:31;;;;;;;4.70;4.50;;;14.00;99.90;;;;;;5013583;28;20232;-66
2023/10/28 04:30:58;;;;;;;4.53;4.33;;;13.90;99.90;;;;;;5014309;28;20206;-66
2023/10/28 04:33:25;;;;;;;4.90;4.70;;;13.90;99.90;;;;;;5013547;28;20601;-66
2023/10/28 04:35:54;;;;;;;5.10;4.87;;;13.80;99.90;;;;;;5013275;28;20931;-66
2023/10/28 04:38:20;;;;;;;4.97;4.57;;;13.80;99.90;;;;;;5010175;28;20465;-66
2023/10/28 04:40:46;;;;;;;6.60;6.20;;;13.80;99.90;;;;;;5014134;28;20402;-66
2023/10/28 04:43:12;;;;;;;6.23;5.83;;;13.80;99.90;;;;;;5009578;28;20455;-60
2023/10/28 04:45:42;;;;;;;6.33;5.83;;;13.80;99.90;;;;;;5013723;28;20179;-66
2023/10/28 04:48:10;;;;;;;7.80;7.27;;;13.80;99.90;;;;;;5013587;28;20425;-66
2023/10/28 04:50:36;;;;;;;6.10;5.67;;;13.80;99.90;;;;;;5011476;28;20480;-66
2023/10/28 04:53:02;;;;;;;6.00;5.60;;;13.80;99.90;;;;;;5013678;28;20789;-66
2023/10/28 04:55:27;;;;;;;5.30;5.10;;;13.80;99.90;;;;;;5012107;28;20566;-66
2023/10/28 04:57:53;;;;;;;5.10;4.90;;;13.80;99.90;;;;;;5010004;28;20418;-66
2023/10/28 05:00:19;;;;;;;5.10;4.80;;;13.80;99.90;;;;;;4994431;28;20223;-66
2023/10/28 05:02:45;;;;;;;5.57;5.27;;;13.80;99.90;;;;;;4999493;28;20207;-66
2023/10/28 05:05:13;;;;;;;5.60;5.30;;;13.70;99.90;;;;;;5011088;28;20437;-66
2023/10/28 05:07:40;;;;;;;6.33;5.93;;;13.70;99.90;;;;;;5010254;28;20934;-66
2023/10/28 05:10:06;;;;;;;6.30;5.80;;;13.70;99.90;;;;;;5012577;28;20421;-66
2023/10/28 05:12:32;;;;;;;5.40;5.10;;;13.70;99.90;;;;;;5012835;28;20893;-66
2023/10/28 05:14:59;;;;;;;5.40;5.10;;;13.70;99.90;;;;;;5013576;28;20417;-66
2023/10/28 05:17:25;;;;;;;5.43;5.13;;;13.60;99.90;;;;;;5012647;28;20560;-66
2023/10/28 05:19:51;;;;;;;5.60;5.30;;;13.60;99.90;;;;;;5013528;28;20776;-66
2023/10/28 05:22:18;;;;;;;15.80;14.23;;;13.60;99.90;;;;;;5012511;28;20464;-61
2023/10/28 05:24:47;;;;;;;6.97;6.53;;;13.50;99.90;;;;;;5012793;28;20213;-66
2023/10/28 05:27:13;;;;;;;7.23;6.17;;;13.50;99.90;;;;;;5013317;28;20743;-64
2023/10/28 05:29:39;;;;;;;6.77;6.37;;;13.50;99.90;;;;;;5012309;28;20495;-66
2023/10/28 05:32:05;;;;;;;7.80;7.30;;;13.50;99.90;;;;;;5005784;28;20551;-65
2023/10/28 05:34:31;;;;;;;8.27;7.67;;;13.50;99.90;;;;;;5011398;28;20417;-66
2023/10/28 05:36:56;;;;;;;10.63;9.73;;;13.40;99.90;;;;;;5013150;28;20414;-66
2023/10/28 05:39:22;;;;;;;8.30;7.80;;;13.50;99.90;;;;;;5003223;28;20206;-66
2023/10/28 05:41:48;;;;;;;9.27;8.57;;;13.40;99.90;;;;;;5012790;28;20208;-67
2023/10/28 05:44:14;;;;;;;8.10;7.40;;;13.40;99.90;;;;;;5012631;28;20550;-66
2023/10/28 05:46:41;;;;;;;7.90;7.40;;;13.40;99.90;;;;;;4998849;28;20451;-66
2023/10/28 05:49:07;;;;;;;9.27;8.47;;;13.40;99.90;;;;;;5006213;28;20424;-66
2023/10/28 05:51:36;;;;;;;8.60;8.10;;;13.40;99.90;;;;;;5007864;28;20561;-66
2023/10/28 05:54:03;;;;;;;8.73;8.03;;;13.40;99.90;;;;;;4998176;28;20839;-62
2023/10/28 05:56:30;;;;;;;8.43;7.93;;;13.40;99.90;;;;;;5011956;28;20435;-61
2023/10/28 05:58:58;;;;;;;8.80;8.10;;;13.40;99.90;;;;;;5012093;28;20428;-68
2023/10/28 06:01:24;;;;;;;9.17;8.47;;;13.40;99.90;;;;;;5007567;28;20784;-66
2023/10/28 06:03:50;;;;;;;7.83;7.33;;;13.40;99.90;;;;;;5011108;28;20567;-66
2023/10/28 06:06:16;;;;;;;7.97;7.47;;;13.40;99.90;;;;;;5010530;28;20522;-61
2023/10/28 06:08:42;;;;;;;8.63;7.93;;;13.40;99.90;;;;;;5010626;28;20182;-66
2023/10/28 06:11:09;;;;;;;8.10;7.60;;;13.40;99.90;;;;;;5011915;28;20642;-66
2023/10/28 06:13:36;;;;;;;8.30;7.70;;;13.40;99.90;;;;;;5009722;28;20186;-68
2023/10/28 06:16:02;;;;;;;8.37;7.77;;;13.40;99.90;;;;;;5011988;28;20475;-69
2023/10/28 06:18:29;;;;;;;7.50;7.00;;;13.50;99.90;;;;;;5010897;28;20422;-70
2023/10/28 06:20:55;;;;;;;7.60;7.00;;;14.30;99.90;;;;;;5010930;28;20941;-70
2023/10/28 06:23:21;;;;;;;6.70;6.20;;;15.00;99.90;;;;;;5004841;28;20455;-66
2023/10/28 06:25:47;;;;;;;6.00;5.60;;;15.40;99.90;;;;;;5007674;28;20435;-69
2023/10/28 06:28:12;;;;;;;6.70;6.00;;;15.90;99.90;;;;;;5007941;28;20186;-69
2023/10/28 06:30:48;;;;;;;5.07;4.63;;;16.20;99.90;;;;;;5003611;28;20179;-70
2023/10/28 06:33:14;;;;;;;5.10;4.80;;;16.60;99.90;;;;;;5009016;28;20194;-68
2023/10/28 06:35:40;;;;;;;4.90;4.70;;;16.80;99.90;;;;;;5006364;28;20426;-70
2023/10/28 06:38:06;;;;;;;5.47;5.13;;;17.00;99.90;;;;;;5005714;28;20905;-70
2023/10/28 06:40:38;;;;;;;5.17;4.87;;;17.20;99.90;;;;;;5001059;28;20187;-70
2023/10/28 06:43:04;;;;;;;5.40;5.00;;;17.30;99.90;;;;;;5006717;28;20975;-70
2023/10/28 06:45:31;;;;;;;5.00;4.70;;;17.40;99.90;;;;;;5007361;28;20529;-69
2023/10/28 06:47:57;;;;;;;5.73;5.33;;;17.50;99.90;;;;;;4996854;28;20509;-70
2023/10/28 06:50:23;;;;;;;4.97;4.57;;;17.60;99.90;;;;;;5005087;28;21012;-66
2023/10/28 06:52:49;;;;;;;4.13;3.90;;;17.70;99.90;;;;;;5011592;28;20446;-65
2023/10/28 06:55:15;;;;;;;35.77;27.23;;;17.70;99.90;;;;;;5000281;28;20469;-65
2023/10/28 06:57:41;;;;;;;24.57;20.03;;;17.80;99.90;;;;;;4999479;28;20222;-64
2023/10/28 07:00:15;;;;;;;10.50;9.40;;;17.80;99.90;;;;;;5005231;28;20508;-65
2023/10/28 07:02:42;;;;;;;6.50;6.03;;;17.90;99.90;;;;;;5010888;28;20528;-65
2023/10/28 07:05:11;;;;;;;5.97;5.37;;;17.90;99.90;;;;;;5011654;28;20781;-65
2023/10/28 07:07:37;;;;;;;5.93;5.47;;;18.00;99.90;;;;;;5011142;28;20776;-65
2023/10/28 07:10:04;;;;;;;4.93;4.53;;;18.00;99.90;;;;;;5011443;28;20521;-65
2023/10/28 07:12:30;;;;;;;4.73;4.43;;;18.00;99.90;;;;;;5009134;28;20464;-65
2023/10/28 07:14:56;;;;;;;5.60;5.07;;;18.00;99.90;;;;;;5008607;28;20419;-65
2023/10/28 07:17:22;;;;;;;6.03;5.53;;;18.00;99.90;;;;;;5010899;28;20792;-63
2023/10/28 07:19:49;;;;;;;5.10;4.77;;;17.90;99.90;;;;;;5011669;28;20440;-65
2023/10/28 07:22:20;;;;;;;4.63;4.40;;;17.80;99.90;;;;;;5010312;28;20469;-65
2023/10/28 07:24:48;;;;;;;8.47;7.53;;;17.80;99.90;;;;;;5010758;28;20418;-65
2023/10/28 07:27:18;;;;;;;22.80;20.50;;;17.90;99.90;;;;;;5013437;28;20426;-66
2023/10/28 07:29:44;;;;;;;48.07;39.10;;;17.90;99.90;;;;;;5002823;28;20433;-65
2023/10/28 07:32:10;;;;;;;47.40;37.47;;;17.90;99.90;;;;;;5008365;28;20419;-65
2023/10/28 07:34:35;;;;;;;30.83;25.80;;;17.90;99.90;;;;;;5007938;28;20529;-65
2023/10/28 07:37:05;;;;;;;24.17;20.13;;;17.80;99.90;;;;;;5007841;28;20254;-65
2023/10/28 07:39:31;;;;;;;13.53;12.23;;;17.80;99.90;;;;;;5014646;28;20413;-64
2023/10/28 07:41:57;;;;;;;10.83;9.77;;;17.70;99.90;;;;;;5002553;28;20464;-65
2023/10/28 07:44:23;;;;;;;6.73;6.23;;;17.60;99.90;;;;;;5014514;28;20421;-63
2023/10/28 07:46:49;;;;;;;10.43;9.43;;;17.60;99.90;;;;;;5008964;28;20636;-66
2023/10/28 07:49:15;;;;;;;7.53;6.93;;;17.20;99.90;;;;;;5005315;28;20182;-65
2023/10/28 07:51:41;;;;;;;6.70;6.20;;;17.30;99.90;;;;;;5009519;28;21168;-65
2023/10/28 07:54:07;;;;;;;6.70;6.20;;;17.30;99.90;;;;;;5009530;28;20422;-65
2023/10/28 07:56:33;;;;;;;5.57;5.17;;;17.50;99.90;;;;;;5001070;28;20496;-65
2023/10/28 07:59:02;;;;;;;5.50;5.17;;;17.50;99.90;;;;;;5006320;28;20182;-65
2023/10/28 08:01:31;;;;;;;4.30;4.00;;;17.60;99.90;;;;;;5008949;28;20433;-65
2023/10/28 08:03:57;;;;;;;4.17;3.97;;;17.60;99.90;;;;;;5002279;28;20450;-64
2023/10/28 08:06:23;;;;;;;4.33;3.90;;;17.40;99.90;;;;;;5011091;28;20476;-64
2023/10/28 08:08:52;;;;;;;3.70;3.50;;;17.50;99.90;;;;;;5013848;28;20426;-65
2023/10/28 08:11:19;;;;;;;3.03;2.93;;;17.60;99.90;;;;;;5009142;28;20422;-74
2023/10/28 08:13:44;;;;;;;3.13;3.00;;;17.60;99.90;;;;;;5013771;28;20718;-73
2023/10/28 08:16:11;;;;;;;3.00;2.90;;;17.50;99.90;;;;;;5014653;28;20465;-70
2023/10/28 08:18:43;;;;;;;3.23;3.00;;;17.20;99.90;;;;;;5013991;28;20182;-71
2023/10/28 08:21:09;;;;;;;161.03;112.40;;;16.80;99.90;;;;;;5015301;28;20449;-72
2023/10/28 08:23:38;;;;;;;84.67;55.53;;;16.60;99.90;;;;;;5002184;28;20455;-72
2023/10/28 08:26:05;;;;;;;7.33;6.40;;;16.30;99.90;;;;;;4977588;28;20482;-72
2023/10/28 08:28:31;;;;;;;3.73;3.53;;;16.20;99.90;;;;;;4994377;28;20461;-72
2023/10/28 08:30:57;;;;;;;3.30;3.20;;;16.00;99.90;;;;;;4993867;28;20440;-71
2023/10/28 08:33:23;;;;;;;3.50;3.10;;;15.70;99.90;;;;;;4995281;28;20176;-71
2023/10/28 08:35:49;;;;;;;3.00;2.80;;;15.20;99.90;;;;;;5011847;28;20273;-63
2023/10/28 08:38:17;;;;;;;2.73;2.63;;;15.00;99.90;;;;;;5011768;28;20617;-63
2023/10/28 08:40:46;;;;;;;3.20;2.90;;;14.80;99.90;;;;;;5013375;28;20404;-76
2023/10/28 08:43:17;;;;;;;476.93;277.47;;;14.70;99.90;;;;;;5014149;28;20460;-60
2023/10/28 08:45:45;;;;;;;17.43;11.80;;;14.60;99.90;;;;;;5010107;28;20431;-63
2023/10/28 08:48:15;;;;;;;3.17;3.07;;;14.40;99.90;;;;;;5012227;28;20427;-63
2023/10/28 08:50:46;;;;;;;3.30;3.10;;;14.40;99.90;;;;;;5007024;28;21003;-63
2023/10/28 08:53:16;;;;;;;2.80;2.70;;;14.40;99.90;;;;;;5010504;28;20435;-63
2023/10/28 08:55:44;;;;;;;3.10;3.00;;;14.40;99.90;;;;;;5007023;28;20894;-65
2023/10/28 08:58:10;;;;;;;3.20;3.10;;;14.40;99.90;;;;;;5012998;28;20419;-65
2023/10/28 09:00:38;;;;;;;3.17;3.07;;;14.40;99.90;;;;;;5011792;28;20424;-64
2023/10/28 09:03:05;;;;;;;2.90;2.70;;;14.30;99.90;;;;;;5013448;28;20457;-65
2023/10/28 09:05:31;;;;;;;2.60;2.60;;;14.10;99.90;;;;;;5012302;28;20960;-64
2023/10/28 09:07:57;;;;;;;3.60;3.30;;;14.00;99.90;;;;;;5013890;28;20409;-64
2023/10/28 09:10:23;;;;;;;6.33;2.90;;;14.00;99.90;;;;;;5013869;28;20172;-64
2023/10/28 09:12:51;;;;;;;3.00;2.90;;;14.10;99.90;;;;;;5012359;28;20665;-64
2023/10/28 09:15:17;;;;;;;2.73;2.60;;;14.00;99.90;;;;;;5012735;28;20424;-63
2023/10/28 09:17:43;;;;;;;3.23;3.07;;;14.00;99.90;;;;;;5002644;28;20930;-64
2023/10/28 09:20:09;;;;;;;2.93;2.83;;;14.00;99.90;;;;;;5008963;28;20433;-65
2023/10/28 09:22:43;;;;;;;3.23;3.03;;;14.00;99.90;;;;;;4994835;28;20463;-64
2023/10/28 09:25:10;;;;;;;3.10;3.00;;;14.10;99.90;;;;;;5010421;28;20192;-66
2023/10/28 09:27:39;;;;;;;3.40;3.30;;;14.10;99.90;;;;;;5010840;28;20411;-66
2023/10/28 09:30:08;;;;;;;3.37;3.27;;;14.20;99.90;;;;;;5012888;28;20423;-66
2023/10/28 09:32:35;;;;;;;2.40;2.40;;;14.20;99.90;;;;;;5008993;28;20508;-68
2023/10/28 09:35:07;;;;;;;2.60;2.50;;;14.20;99.90;;;;;;5004636;28;20428;-67
2023/10/28 09:37:38;;;;;;;2.60;2.50;;;14.30;99.90;;;;;;5009704;28;20482;-69
2023/10/28 09:40:05;;;;;;;2.50;2.40;;;14.30;99.90;;;;;;5012801;28;20473;-69
2023/10/28 09:42:36;;;;;;;2.30;2.20;;;14.40;99.90;;;;;;5009549;28;20464;-68
2023/10/28 09:45:05;;;;;;;2.13;2.13;;;14.40;99.90;;;;;;5011407;28;20807;-68
2023/10/28 09:47:52;;;;;;;3.80;3.60;;;14.50;99.90;;;;;;5011796;28;20419;-67
2023/10/28 09:50:22;;;;;;;2.30;2.27;;;14.50;99.90;;;;;;5010704;28;20473;-67
2023/10/28 09:52:51;;;;;;;2.73;2.60;;;14.50;99.90;;;;;;5011596;28;20441;-68
2023/10/28 09:55:23;;;;;;;2.63;2.53;;;14.50;99.90;;;;;;5004885;28;20434;-67
2023/10/28 09:57:55;;;;;;;2.90;2.90;;;14.40;99.90;;;;;;5007381;28;20907;-67
2023/10/28 10:00:25;;;;;;;3.13;3.03;;;14.10;99.90;;;;;;4999417;28;20421;-67
2023/10/28 10:03:14;;;;;;;3.37;3.03;;;14.00;99.90;;;;;;5006242;28;20834;-67
2023/10/28 10:05:43;;;;;;;3.30;3.20;;;13.90;99.90;;;;;;5012105;28;20438;-67
2023/10/28 10:08:24;;;;;;;3.20;2.90;;;14.00;99.90;;;;;;4993262;28;20437;-68
2023/10/28 10:10:55;;;;;;;3.27;3.13;;;14.00;99.90;;;;;;5006127;28;20517;-68
2023/10/28 10:13:22;;;;;;;3.30;3.10;;;14.00;99.90;;;;;;5010988;28;20505;-68
2023/10/28 10:15:48;;;;;;;3.57;3.37;;;13.90;99.90;;;;;;5009884;28;20449;-68
2023/10/28 10:18:30;;;;;;;3.10;3.00;;;14.00;99.90;;;;;;5010490;28;20925;-68
2023/10/28 10:21:07;;;;;;;3.37;3.27;;;14.10;99.90;;;;;;5023305;28;20442;-67
2023/10/28 10:23:43;;;;;;;3.40;3.20;;;14.00;99.90;;;;;;5000078;28;20534;-68
2023/10/28 10:26:27;;;;;;;3.60;3.30;;;14.10;99.90;;;;;;4998658;28;20421;-67
2023/10/28 10:28:55;;;;;;;3.80;3.60;;;14.30;99.90;;;;;;4997869;28;20564;-67
2023/10/28 10:31:32;;;;;;;3.80;3.60;;;14.40;99.90;;;;;;5001354;28;20478;-67
2023/10/28 10:34:32;;;;;;;3.50;3.40;;;14.40;99.90;;;;;;5003715;28;20445;-66
2023/10/28 10:36:58;;;;;;;4.07;3.77;;;14.50;99.90;;;;;;4998680;28;20445;-67
2023/10/28 10:39:24;;;;;;;3.40;3.20;;;14.50;99.90;;;;;;5007536;28;20411;-68
2023/10/28 10:41:53;;;;;;;3.30;3.10;;;14.40;99.90;;;;;;4998608;28;20883;-66
2023/10/28 10:44:32;;;;;;;3.17;3.07;;;14.50;99.90;;;;;;5000686;28;20182;-68
2023/10/28 10:46:59;;;;;;;3.37;3.20;;;14.50;99.90;;;;;;5003654;28;20412;-68
2023/10/28 10:49:26;;;;;;;3.07;2.83;;;14.50;99.90;;;;;;5006290;28;20439;-68
2023/10/28 10:51:52;;;;;;;3.17;3.07;;;14.60;99.90;;;;;;5011093;28;20454;-67
2023/10/28 10:54:18;;;;;;;3.50;3.20;;;14.50;99.90;;;;;;5012289;28;20902;-69
2023/10/28 10:56:49;;;;;;;3.57;3.37;;;14.50;99.90;;;;;;5011341;28;20416;-69
2023/10/28 10:59:14;;;;;;;2.93;2.70;;;14.50;99.90;;;;;;5012050;28;20542;-67
2023/10/28 11:01:40;;;;;;;3.60;3.30;;;14.60;99.90;;;;;;5000825;28;20909;-66
2023/10/28 11:04:07;;;;;;;3.70;3.50;;;14.60;99.90;;;;;;5014180;28;20276;-67
2023/10/28 11:06:35;;;;;;;3.83;3.60;;;14.90;99.90;;;;;;5015688;28;20412;-67
2023/10/28 11:09:03;;;;;;;3.30;3.20;;;15.00;99.90;;;;;;5015120;28;20497;-67
2023/10/28 11:11:29;;;;;;;2.90;2.80;;;15.20;99.90;;;;;;5014979;28;20417;-67
2023/10/28 11:13:56;;;;;;;2.60;2.50;;;15.60;99.90;;;;;;5003025;28;20760;-67
2023/10/28 11:16:26;;;;;;;2.73;2.63;;;15.90;99.90;;;;;;5009129;28;20421;-65
2023/10/28 11:18:52;;;;;;;3.50;3.30;;;16.00;99.90;;;;;;5014816;28;20390;-67
2023/10/28 11:21:25;;;;;;;2.70;2.60;;;16.10;99.90;;;;;;5013703;28;20426;-66
2023/10/28 11:23:54;;;;;;;2.90;2.70;;;16.20;99.90;;;;;;5014877;28;20195;-65
2023/10/28 11:26:20;;;;;;;2.70;2.60;;;16.40;99.90;;;;;;5010917;28;20902;-65
2023/10/28 11:28:46;;;;;;;3.63;2.70;;;16.70;99.90;;;;;;4995237;28;20411;-65
2023/10/28 11:31:13;;;;;;;2.60;2.50;;;17.10;99.90;;;;;;5007351;28;20429;-65
2023/10/28 11:33:40;;;;;;;2.93;2.70;;;17.40;99.90;;;;;;5010862;28;20513;-67
2023/10/28 11:36:06;;;;;;;2.70;2.50;;;17.70;99.90;;;;;;5001997;28;20930;-64
2023/10/28 11:38:35;;;;;;;3.33;3.13;;;17.80;99.90;;;;;;5010652;28;21066;-64
2023/10/28 11:41:07;;;;;;;2.40;2.30;;;17.80;99.90;;;;;;5010168;28;20508;-65
2023/10/28 11:43:36;;;;;;;2.60;2.50;;;17.70;99.90;;;;;;4992108;28;20458;-65
2023/10/28 11:46:03;;;;;;;4.37;2.53;;;17.60;99.90;;;;;;5002451;28;20410;-65
2023/10/28 11:48:30;;;;;;;2.60;2.37;;;17.60;99.90;;;;;;5015869;28;20450;-67
2023/10/28 11:50:56;;;;;;;2.83;2.63;;;17.60;99.90;;;;;;5013902;28;20465;-67
2023/10/28 11:53:23;;;;;;;2.70;2.50;;;17.60;99.90;;;;;;5015505;28;20482;-68
2023/10/28 11:55:49;;;;;;;2.60;2.50;;;17.50;99.90;;;;;;5012648;28;20430;-68
2023/10/28 11:58:15;;;;;;;3.80;3.50;;;17.40;99.90;;;;;;5008695;28;20422;-67
2023/10/28 12:00:40;;;;;;;3.23;2.93;;;17.40;99.90;;;;;;5011953;28;20183;-66
2023/10/28 12:03:06;;;;;;;2.77;2.57;;;17.40;99.90;;;;;;5014945;28;20199;-66
2023/10/28 12:05:35;;;;;;;4.80;3.00;;;17.30;99.90;;;;;;5011803;28;20179;-72
2023/10/28 12:08:01;;;;;;;4.17;2.80;;;17.30;99.90;;;;;;5013575;28;20225;-75
2023/10/28 12:10:27;;;;;;;2.47;2.30;;;17.20;99.90;;;;;;5012223;28;20419;-67
2023/10/28 12:12:53;;;;;;;2.87;2.57;;;17.20;99.90;;;;;;5004834;28;20578;-66
2023/10/28 12:15:19;;;;;;;3.43;2.73;;;17.30;99.90;;;;;;5014694;28;20493;-66
2023/10/28 12:17:46;;;;;;;3.07;2.87;;;17.20;99.90;;;;;;5002201;28;20175;-66
2023/10/28 12:20:14;;;;;;;3.10;2.80;;;17.00;99.90;;;;;;4999900;28;20210;-63
2023/10/28 12:22:41;;;;;;;3.10;2.90;;;16.90;99.90;;;;;;4997642;28;20815;-67
2023/10/28 12:25:13;;;;;;;3.00;2.80;;;16.90;99.90;;;;;;5001046;28;20430;-63
2023/10/28 12:27:39;;;;;;;3.20;3.00;;;16.80;99.90;;;;;;5012691;28;20402;-68
2023/10/28 12:30:08;;;;;;;3.73;3.30;;;16.80;99.90;;;;;;5008758;28;20501;-65
2023/10/28 12:32:34;;;;;;;5.80;3.10;;;16.80;99.90;;;;;;5014043;28;20426;-64
2023/10/28 12:35:00;;;;;;;4.80;3.30;;;16.90;99.90;;;;;;5004485;28;20441;-64
2023/10/28 12:37:29;;;;;;;4.40;2.93;;;16.80;99.90;;;;;;5013930;28;20418;-64
2023/10/28 12:39:55;;;;;;;4.17;3.00;;;16.80;99.90;;;;;;5012526;28;20496;-64
2023/10/28 12:42:21;;;;;;;3.37;2.90;;;16.80;99.90;;;;;;5013862;28;20457;-66
2023/10/28 12:44:47;;;;;;;3.97;3.20;;;16.70;99.90;;;;;;5001506;28;20797;-64
2023/10/28 12:47:12;;;;;;;3.03;2.90;;;16.70;99.90;;;;;;5003015;28;20182;-63